sensor_id;sensor_type;location;lat;lon;timestamp;P1;durP1;ratioP1;P2;durP2;ratioP2
16727;SDS011;8482;54.396;18.590;2022-10-22T00:01:19;24.48;;;16.83;;
16727;SDS011;8482;54.396;18.590;2022-10-22T00:03:45;26.15;;;17.27;;
16727;SDS011;8482;54.396;18.590;2022-10-22T00:06:11;27.50;;;17.20;;
16727;SDS011;8482;54.396;18.590;2022-10-22T00:08:37;24.65;;;16.33;;
16727;SDS011;8482;54.396;18.590;2022-10-22T00:11:23;23.45;;;15.52;;
16727;SDS011;8482;54.396;18.590;2022-10-22T00:13:49;25.35;;;16.70;;
16727;SDS011;8482;54.396;18.590;2022-10-22T00:16:15;25.73;;;16.27;;
16727;SDS011;8482;54.396;18.590;2022-10-22T00:18:41;25.30;;;17.08;;
16727;SDS011;8482;54.396;18.590;2022-10-22T00:21:07;26.13;;;16.67;;
16727;SDS011;8482;54.396;18.590;2022-10-22T00:23:33;23.17;;;17.42;;
16727;SDS011;8482;54.396;18.590;2022-10-22T00:25:59;25.67;;;16.88;;
16727;SDS011;8482;54.396;18.590;2022-10-22T00:28:25;24.50;;;16.40;;
16727;SDS011;8482;54.396;18.590;2022-10-22T00:30:56;22.90;;;15.63;;
16727;SDS011;8482;54.396;18.590;2022-10-22T00:33:24;24.25;;;16.65;;
16727;SDS011;8482;54.396;18.590;2022-10-22T00:35:51;25.33;;;16.73;;
16727;SDS011;8482;54.396;18.590;2022-10-22T00:38:18;23.70;;;16.15;;
16727;SDS011;8482;54.396;18.590;2022-10-22T00:40:44;23.38;;;15.48;;
16727;SDS011;8482;54.396;18.590;2022-10-22T00:43:11;24.48;;;16.70;;
16727;SDS011;8482;54.396;18.590;2022-10-22T00:45:41;24.83;;;16.50;;
16727;SDS011;8482;54.396;18.590;2022-10-22T00:48:08;24.40;;;16.50;;
16727;SDS011;8482;54.396;18.590;2022-10-22T00:50:54;23.70;;;16.08;;
16727;SDS011;8482;54.396;18.590;2022-10-22T00:53:26;22.77;;;16.25;;
16727;SDS011;8482;54.396;18.590;2022-10-22T00:56:00;24.42;;;17.58;;
16727;SDS011;8482;54.396;18.590;2022-10-22T00:58:27;24.15;;;16.55;;
16727;SDS011;8482;54.396;18.590;2022-10-22T01:00:59;22.92;;;16.48;;
16727;SDS011;8482;54.396;18.590;2022-10-22T01:03:26;23.58;;;16.70;;
16727;SDS011;8482;54.396;18.590;2022-10-22T01:05:56;23.38;;;15.88;;
16727;SDS011;8482;54.396;18.590;2022-10-22T01:08:37;22.70;;;16.23;;
16727;SDS011;8482;54.396;18.590;2022-10-22T01:19:49;24.55;;;17.55;;
16727;SDS011;8482;54.396;18.590;2022-10-22T01:26:11;25.08;;;16.00;;
16727;SDS011;8482;54.396;18.590;2022-10-22T01:31:42;26.38;;;17.60;;
16727;SDS011;8482;54.396;18.590;2022-10-22T01:34:16;26.27;;;16.83;;
16727;SDS011;8482;54.396;18.590;2022-10-22T01:36:44;25.02;;;16.83;;
16727;SDS011;8482;54.396;18.590;2022-10-22T01:39:12;28.73;;;17.88;;
16727;SDS011;8482;54.396;18.590;2022-10-22T01:41:44;27.63;;;17.15;;
16727;SDS011;8482;54.396;18.590;2022-10-22T01:44:43;31.23;;;18.27;;
16727;SDS011;8482;54.396;18.590;2022-10-22T01:52:52;25.08;;;16.73;;
16727;SDS011;8482;54.396;18.590;2022-10-22T01:58:40;27.35;;;16.92;;
16727;SDS011;8482;54.396;18.590;2022-10-22T02:01:53;26.67;;;17.00;;
16727;SDS011;8482;54.396;18.590;2022-10-22T02:05:04;25.58;;;16.98;;
16727;SDS011;8482;54.396;18.590;2022-10-22T02:08:13;24.90;;;17.80;;
16727;SDS011;8482;54.396;18.590;2022-10-22T02:10:46;26.25;;;15.95;;
16727;SDS011;8482;54.396;18.590;2022-10-22T02:13:16;26.05;;;17.00;;
16727;SDS011;8482;54.396;18.590;2022-10-22T02:15:49;24.85;;;17.27;;
16727;SDS011;8482;54.396;18.590;2022-10-22T02:18:21;25.27;;;17.02;;
16727;SDS011;8482;54.396;18.590;2022-10-22T02:20:53;25.20;;;17.05;;
16727;SDS011;8482;54.396;18.590;2022-10-22T02:23:20;25.17;;;17.27;;
16727;SDS011;8482;54.396;18.590;2022-10-22T02:25:48;25.88;;;17.30;;
16727;SDS011;8482;54.396;18.590;2022-10-22T02:28:28;24.40;;;17.65;;
16727;SDS011;8482;54.396;18.590;2022-10-22T02:31:51;24.23;;;15.93;;
16727;SDS011;8482;54.396;18.590;2022-10-22T02:34:23;25.23;;;15.95;;
16727;SDS011;8482;54.396;18.590;2022-10-22T02:36:54;24.70;;;16.73;;
16727;SDS011;8482;54.396;18.590;2022-10-22T02:39:23;26.90;;;16.90;;
16727;SDS011;8482;54.396;18.590;2022-10-22T02:41:50;25.95;;;16.58;;
16727;SDS011;8482;54.396;18.590;2022-10-22T02:44:19;25.20;;;17.15;;
16727;SDS011;8482;54.396;18.590;2022-10-22T02:46:46;25.42;;;16.83;;
16727;SDS011;8482;54.396;18.590;2022-10-22T02:49:13;23.98;;;15.93;;
16727;SDS011;8482;54.396;18.590;2022-10-22T02:51:39;23.40;;;16.30;;
16727;SDS011;8482;54.396;18.590;2022-10-22T02:54:05;25.08;;;16.05;;
16727;SDS011;8482;54.396;18.590;2022-10-22T02:56:31;29.55;;;17.20;;
16727;SDS011;8482;54.396;18.590;2022-10-22T02:58:57;26.88;;;16.85;;
16727;SDS011;8482;54.396;18.590;2022-10-22T03:01:23;27.20;;;17.40;;
16727;SDS011;8482;54.396;18.590;2022-10-22T03:03:49;24.95;;;15.60;;
16727;SDS011;8482;54.396;18.590;2022-10-22T03:06:15;25.60;;;16.35;;
16727;SDS011;8482;54.396;18.590;2022-10-22T03:08:42;25.80;;;16.95;;
16727;SDS011;8482;54.396;18.590;2022-10-22T03:11:07;24.77;;;16.25;;
16727;SDS011;8482;54.396;18.590;2022-10-22T03:13:34;24.48;;;15.93;;
16727;SDS011;8482;54.396;18.590;2022-10-22T03:15:59;24.63;;;16.17;;
16727;SDS011;8482;54.396;18.590;2022-10-22T03:18:25;25.42;;;16.45;;
16727;SDS011;8482;54.396;18.590;2022-10-22T03:21:06;23.13;;;16.42;;
16727;SDS011;8482;54.396;18.590;2022-10-22T03:23:55;24.25;;;16.67;;
16727;SDS011;8482;54.396;18.590;2022-10-22T03:26:23;25.40;;;16.92;;
16727;SDS011;8482;54.396;18.590;2022-10-22T03:28:49;24.67;;;16.65;;
16727;SDS011;8482;54.396;18.590;2022-10-22T03:31:15;23.95;;;17.02;;
16727;SDS011;8482;54.396;18.590;2022-10-22T03:33:41;24.50;;;17.30;;
16727;SDS011;8482;54.396;18.590;2022-10-22T03:36:07;25.65;;;17.60;;
16727;SDS011;8482;54.396;18.590;2022-10-22T03:38:34;25.05;;;17.02;;
16727;SDS011;8482;54.396;18.590;2022-10-22T03:41:04;25.95;;;17.35;;
16727;SDS011;8482;54.396;18.590;2022-10-22T03:43:30;26.70;;;17.00;;
16727;SDS011;8482;54.396;18.590;2022-10-22T03:46:00;25.38;;;16.08;;
16727;SDS011;8482;54.396;18.590;2022-10-22T03:48:26;24.58;;;16.67;;
16727;SDS011;8482;54.396;18.590;2022-10-22T03:50:52;24.50;;;16.48;;
16727;SDS011;8482;54.396;18.590;2022-10-22T03:53:18;24.45;;;16.45;;
16727;SDS011;8482;54.396;18.590;2022-10-22T03:55:44;25.35;;;16.27;;
16727;SDS011;8482;54.396;18.590;2022-10-22T03:58:09;25.33;;;17.25;;
16727;SDS011;8482;54.396;18.590;2022-10-22T04:00:35;23.70;;;16.30;;
16727;SDS011;8482;54.396;18.590;2022-10-22T04:03:02;25.48;;;17.58;;
16727;SDS011;8482;54.396;18.590;2022-10-22T04:05:28;24.25;;;16.58;;
16727;SDS011;8482;54.396;18.590;2022-10-22T04:07:57;24.35;;;16.45;;
16727;SDS011;8482;54.396;18.590;2022-10-22T04:10:22;26.92;;;16.83;;
16727;SDS011;8482;54.396;18.590;2022-10-22T04:12:48;25.83;;;16.92;;
16727;SDS011;8482;54.396;18.590;2022-10-22T04:15:14;24.48;;;17.10;;
16727;SDS011;8482;54.396;18.590;2022-10-22T04:17:40;23.40;;;16.75;;
16727;SDS011;8482;54.396;18.590;2022-10-22T04:20:06;25.98;;;15.88;;
16727;SDS011;8482;54.396;18.590;2022-10-22T04:22:33;25.58;;;17.65;;
16727;SDS011;8482;54.396;18.590;2022-10-22T04:25:00;28.08;;;18.25;;
16727;SDS011;8482;54.396;18.590;2022-10-22T04:27:28;22.63;;;17.25;;
16727;SDS011;8482;54.396;18.590;2022-10-22T04:29:56;26.77;;;18.38;;
16727;SDS011;8482;54.396;18.590;2022-10-22T04:32:22;26.10;;;17.42;;
16727;SDS011;8482;54.396;18.590;2022-10-22T04:34:48;25.42;;;17.02;;
16727;SDS011;8482;54.396;18.590;2022-10-22T04:37:13;23.40;;;15.73;;
16727;SDS011;8482;54.396;18.590;2022-10-22T04:39:39;25.42;;;16.27;;
16727;SDS011;8482;54.396;18.590;2022-10-22T04:42:05;25.80;;;16.63;;
16727;SDS011;8482;54.396;18.590;2022-10-22T04:44:31;23.20;;;16.90;;
16727;SDS011;8482;54.396;18.590;2022-10-22T04:46:57;24.92;;;16.95;;
16727;SDS011;8482;54.396;18.590;2022-10-22T04:49:23;26.25;;;16.35;;
16727;SDS011;8482;54.396;18.590;2022-10-22T04:51:49;24.63;;;15.77;;
16727;SDS011;8482;54.396;18.590;2022-10-22T04:54:15;24.67;;;16.02;;
16727;SDS011;8482;54.396;18.590;2022-10-22T04:56:41;23.70;;;16.30;;
16727;SDS011;8482;54.396;18.590;2022-10-22T04:59:07;23.00;;;16.15;;
16727;SDS011;8482;54.396;18.590;2022-10-22T05:01:37;25.58;;;17.15;;
16727;SDS011;8482;54.396;18.590;2022-10-22T05:04:06;24.02;;;16.45;;
16727;SDS011;8482;54.396;18.590;2022-10-22T05:06:35;22.77;;;15.27;;
16727;SDS011;8482;54.396;18.590;2022-10-22T05:09:05;26.27;;;16.33;;
16727;SDS011;8482;54.396;18.590;2022-10-22T05:11:37;26.02;;;16.05;;
16727;SDS011;8482;54.396;18.590;2022-10-22T05:14:06;24.42;;;15.98;;
16727;SDS011;8482;54.396;18.590;2022-10-22T05:16:34;24.40;;;16.00;;
16727;SDS011;8482;54.396;18.590;2022-10-22T05:19:02;23.70;;;16.38;;
16727;SDS011;8482;54.396;18.590;2022-10-22T05:21:29;24.95;;;16.13;;
16727;SDS011;8482;54.396;18.590;2022-10-22T05:23:56;21.88;;;15.38;;
16727;SDS011;8482;54.396;18.590;2022-10-22T05:26:23;21.88;;;15.20;;
16727;SDS011;8482;54.396;18.590;2022-10-22T05:28:51;22.13;;;16.05;;
16727;SDS011;8482;54.396;18.590;2022-10-22T05:31:17;24.83;;;15.85;;
16727;SDS011;8482;54.396;18.590;2022-10-22T05:33:44;24.98;;;16.00;;
16727;SDS011;8482;54.396;18.590;2022-10-22T05:36:15;22.75;;;15.75;;
16727;SDS011;8482;54.396;18.590;2022-10-22T05:38:43;23.65;;;16.40;;
16727;SDS011;8482;54.396;18.590;2022-10-22T05:41:14;24.70;;;16.73;;
16727;SDS011;8482;54.396;18.590;2022-10-22T05:43:46;22.45;;;16.05;;
16727;SDS011;8482;54.396;18.590;2022-10-22T05:46:14;22.27;;;16.05;;
16727;SDS011;8482;54.396;18.590;2022-10-22T05:48:42;24.20;;;15.70;;
16727;SDS011;8482;54.396;18.590;2022-10-22T05:51:12;22.77;;;15.10;;
16727;SDS011;8482;54.396;18.590;2022-10-22T05:53:39;22.98;;;15.48;;
16727;SDS011;8482;54.396;18.590;2022-10-22T05:56:11;22.77;;;15.80;;
16727;SDS011;8482;54.396;18.590;2022-10-22T05:58:40;21.38;;;14.38;;
16727;SDS011;8482;54.396;18.590;2022-10-22T06:01:11;23.63;;;16.35;;
16727;SDS011;8482;54.396;18.590;2022-10-22T06:03:43;23.73;;;16.60;;
16727;SDS011;8482;54.396;18.590;2022-10-22T06:08:55;25.98;;;17.42;;
16727;SDS011;8482;54.396;18.590;2022-10-22T06:11:43;27.38;;;16.25;;
16727;SDS011;8482;54.396;18.590;2022-10-22T06:14:10;23.98;;;16.80;;
16727;SDS011;8482;54.396;18.590;2022-10-22T06:16:36;26.70;;;17.88;;
16727;SDS011;8482;54.396;18.590;2022-10-22T06:19:02;24.40;;;16.95;;
16727;SDS011;8482;54.396;18.590;2022-10-22T06:21:28;25.42;;;16.50;;
16727;SDS011;8482;54.396;18.590;2022-10-22T06:23:56;24.73;;;16.20;;
16727;SDS011;8482;54.396;18.590;2022-10-22T06:26:24;24.40;;;16.42;;
16727;SDS011;8482;54.396;18.590;2022-10-22T06:28:51;24.60;;;16.40;;
16727;SDS011;8482;54.396;18.590;2022-10-22T06:31:19;24.80;;;15.77;;
16727;SDS011;8482;54.396;18.590;2022-10-22T06:33:44;23.98;;;16.95;;
16727;SDS011;8482;54.396;18.590;2022-10-22T06:36:11;24.42;;;16.15;;
16727;SDS011;8482;54.396;18.590;2022-10-22T06:38:40;26.08;;;16.55;;
16727;SDS011;8482;54.396;18.590;2022-10-22T06:41:11;25.63;;;16.70;;
16727;SDS011;8482;54.396;18.590;2022-10-22T06:43:41;26.55;;;17.02;;
16727;SDS011;8482;54.396;18.590;2022-10-22T06:46:11;27.35;;;17.95;;
16727;SDS011;8482;54.396;18.590;2022-10-22T06:48:40;23.95;;;16.35;;
16727;SDS011;8482;54.396;18.590;2022-10-22T06:51:08;24.38;;;15.93;;
16727;SDS011;8482;54.396;18.590;2022-10-22T06:53:36;25.52;;;16.50;;
16727;SDS011;8482;54.396;18.590;2022-10-22T06:56:06;26.30;;;16.65;;
16727;SDS011;8482;54.396;18.590;2022-10-22T06:58:35;27.38;;;17.50;;
16727;SDS011;8482;54.396;18.590;2022-10-22T07:01:02;26.60;;;16.55;;
16727;SDS011;8482;54.396;18.590;2022-10-22T07:03:34;25.30;;;16.92;;
16727;SDS011;8482;54.396;18.590;2022-10-22T07:06:03;24.90;;;15.90;;
16727;SDS011;8482;54.396;18.590;2022-10-22T07:08:32;25.52;;;16.42;;
16727;SDS011;8482;54.396;18.590;2022-10-22T07:11:06;26.95;;;17.00;;
16727;SDS011;8482;54.396;18.590;2022-10-22T07:13:44;24.38;;;16.27;;
16727;SDS011;8482;54.396;18.590;2022-10-22T07:16:11;23.40;;;15.90;;
16727;SDS011;8482;54.396;18.590;2022-10-22T07:18:38;27.42;;;16.65;;
16727;SDS011;8482;54.396;18.590;2022-10-22T07:21:06;25.50;;;15.80;;
16727;SDS011;8482;54.396;18.590;2022-10-22T07:23:33;24.58;;;16.65;;
16727;SDS011;8482;54.396;18.590;2022-10-22T07:25:59;26.35;;;17.67;;
16727;SDS011;8482;54.396;18.590;2022-10-22T07:28:28;27.55;;;18.23;;
16727;SDS011;8482;54.396;18.590;2022-10-22T07:30:54;25.60;;;16.52;;
16727;SDS011;8482;54.396;18.590;2022-10-22T07:33:20;23.70;;;17.13;;
16727;SDS011;8482;54.396;18.590;2022-10-22T07:35:46;26.90;;;17.35;;
16727;SDS011;8482;54.396;18.590;2022-10-22T07:38:12;25.50;;;15.98;;
16727;SDS011;8482;54.396;18.590;2022-10-22T07:40:38;24.08;;;16.73;;
16727;SDS011;8482;54.396;18.590;2022-10-22T07:43:04;24.40;;;16.95;;
16727;SDS011;8482;54.396;18.590;2022-10-22T07:45:30;24.70;;;16.70;;
16727;SDS011;8482;54.396;18.590;2022-10-22T07:47:56;24.73;;;17.38;;
16727;SDS011;8482;54.396;18.590;2022-10-22T07:50:23;25.13;;;17.17;;
16727;SDS011;8482;54.396;18.590;2022-10-22T07:52:49;27.17;;;17.40;;
16727;SDS011;8482;54.396;18.590;2022-10-22T07:55:15;24.77;;;16.58;;
16727;SDS011;8482;54.396;18.590;2022-10-22T07:57:41;24.33;;;17.38;;
16727;SDS011;8482;54.396;18.590;2022-10-22T08:00:07;26.38;;;17.00;;
16727;SDS011;8482;54.396;18.590;2022-10-22T08:02:34;24.10;;;16.00;;
16727;SDS011;8482;54.396;18.590;2022-10-22T08:05:00;24.48;;;17.60;;
16727;SDS011;8482;54.396;18.590;2022-10-22T08:07:26;22.92;;;16.50;;
16727;SDS011;8482;54.396;18.590;2022-10-22T08:09:52;27.38;;;17.67;;
16727;SDS011;8482;54.396;18.590;2022-10-22T08:12:18;24.77;;;16.45;;
16727;SDS011;8482;54.396;18.590;2022-10-22T08:14:44;26.85;;;17.77;;
16727;SDS011;8482;54.396;18.590;2022-10-22T08:17:10;24.05;;;16.67;;
16727;SDS011;8482;54.396;18.590;2022-10-22T08:19:36;24.73;;;16.13;;
16727;SDS011;8482;54.396;18.590;2022-10-22T08:22:02;22.98;;;15.80;;
16727;SDS011;8482;54.396;18.590;2022-10-22T08:24:27;23.75;;;15.73;;
16727;SDS011;8482;54.396;18.590;2022-10-22T08:26:54;26.60;;;17.48;;
16727;SDS011;8482;54.396;18.590;2022-10-22T08:29:20;26.23;;;17.38;;
16727;SDS011;8482;54.396;18.590;2022-10-22T08:31:51;24.73;;;17.17;;
16727;SDS011;8482;54.396;18.590;2022-10-22T08:34:18;22.95;;;16.25;;
16727;SDS011;8482;54.396;18.590;2022-10-22T08:36:45;24.77;;;16.58;;
16727;SDS011;8482;54.396;18.590;2022-10-22T08:39:11;24.58;;;17.48;;
16727;SDS011;8482;54.396;18.590;2022-10-22T08:41:44;27.17;;;17.83;;
16727;SDS011;8482;54.396;18.590;2022-10-22T08:47:39;28.80;;;18.15;;
16727;SDS011;8482;54.396;18.590;2022-10-22T08:50:39;23.70;;;16.90;;
16727;SDS011;8482;54.396;18.590;2022-10-22T08:53:13;23.63;;;16.77;;
16727;SDS011;8482;54.396;18.590;2022-10-22T08:55:46;25.88;;;16.88;;
16727;SDS011;8482;54.396;18.590;2022-10-22T08:58:22;26.08;;;17.70;;
16727;SDS011;8482;54.396;18.590;2022-10-22T09:03:51;24.15;;;17.27;;
16727;SDS011;8482;54.396;18.590;2022-10-22T09:06:26;27.88;;;18.63;;
16727;SDS011;8482;54.396;18.590;2022-10-22T09:08:56;28.60;;;18.73;;
16727;SDS011;8482;54.396;18.590;2022-10-22T09:11:32;28.35;;;18.40;;
16727;SDS011;8482;54.396;18.590;2022-10-22T09:14:02;23.73;;;16.73;;
16727;SDS011;8482;54.396;18.590;2022-10-22T09:27:54;27.05;;;18.02;;
16727;SDS011;8482;54.396;18.590;2022-10-22T09:30:27;27.70;;;19.02;;
16727;SDS011;8482;54.396;18.590;2022-10-22T09:35:47;25.45;;;17.73;;
16727;SDS011;8482;54.396;18.590;2022-10-22T09:38:22;25.92;;;16.83;;
16727;SDS011;8482;54.396;18.590;2022-10-22T09:40:56;26.27;;;17.20;;
16727;SDS011;8482;54.396;18.590;2022-10-22T09:43:25;26.63;;;17.92;;
16727;SDS011;8482;54.396;18.590;2022-10-22T09:45:55;25.27;;;16.52;;
16727;SDS011;8482;54.396;18.590;2022-10-22T09:48:32;25.02;;;17.63;;
16727;SDS011;8482;54.396;18.590;2022-10-22T09:51:13;23.75;;;16.05;;
16727;SDS011;8482;54.396;18.590;2022-10-22T09:53:55;23.33;;;15.35;;
16727;SDS011;8482;54.396;18.590;2022-10-22T09:59:00;23.95;;;15.20;;
16727;SDS011;8482;54.396;18.590;2022-10-22T10:01:28;24.60;;;16.25;;
16727;SDS011;8482;54.396;18.590;2022-10-22T10:04:07;24.02;;;15.02;;
16727;SDS011;8482;54.396;18.590;2022-10-22T10:06:37;22.92;;;15.18;;
16727;SDS011;8482;54.396;18.590;2022-10-22T10:09:19;22.95;;;14.98;;
16727;SDS011;8482;54.396;18.590;2022-10-22T10:28:39;23.75;;;16.25;;
16727;SDS011;8482;54.396;18.590;2022-10-22T10:45:47;23.15;;;14.43;;
16727;SDS011;8482;54.396;18.590;2022-10-22T10:48:43;21.50;;;14.10;;
16727;SDS011;8482;54.396;18.590;2022-10-22T11:00:19;22.08;;;14.05;;
16727;SDS011;8482;54.396;18.590;2022-10-22T11:05:29;24.05;;;15.70;;
16727;SDS011;8482;54.396;18.590;2022-10-22T11:19:06;20.70;;;13.48;;
16727;SDS011;8482;54.396;18.590;2022-10-22T11:25:29;22.55;;;14.25;;
16727;SDS011;8482;54.396;18.590;2022-10-22T11:30:24;18.90;;;12.35;;
16727;SDS011;8482;54.396;18.590;2022-10-22T11:32:59;20.13;;;13.18;;
16727;SDS011;8482;54.396;18.590;2022-10-22T11:35:35;18.30;;;11.63;;
16727;SDS011;8482;54.396;18.590;2022-10-22T11:38:06;18.83;;;12.77;;
16727;SDS011;8482;54.396;18.590;2022-10-22T11:40:59;19.58;;;12.25;;
16727;SDS011;8482;54.396;18.590;2022-10-22T11:43:58;17.88;;;12.57;;
16727;SDS011;8482;54.396;18.590;2022-10-22T11:51:43;16.55;;;10.95;;
16727;SDS011;8482;54.396;18.590;2022-10-22T11:57:34;16.52;;;11.52;;
16727;SDS011;8482;54.396;18.590;2022-10-22T12:00:00;18.05;;;11.20;;
16727;SDS011;8482;54.396;18.590;2022-10-22T12:03:17;17.38;;;10.90;;
16727;SDS011;8482;54.396;18.590;2022-10-22T12:05:43;14.82;;;10.18;;
16727;SDS011;8482;54.396;18.590;2022-10-22T12:08:19;18.08;;;10.82;;
16727;SDS011;8482;54.396;18.590;2022-10-22T12:16:23;18.50;;;10.55;;
16727;SDS011;8482;54.396;18.590;2022-10-22T12:21:39;17.35;;;10.52;;
16727;SDS011;8482;54.396;18.590;2022-10-22T12:24:13;17.45;;;10.38;;
16727;SDS011;8482;54.396;18.590;2022-10-22T12:26:44;18.70;;;11.43;;
16727;SDS011;8482;54.396;18.590;2022-10-22T12:29:12;18.33;;;10.73;;
16727;SDS011;8482;54.396;18.590;2022-10-22T12:31:41;15.55;;;10.43;;
16727;SDS011;8482;54.396;18.590;2022-10-22T12:34:21;16.42;;;10.07;;
16727;SDS011;8482;54.396;18.590;2022-10-22T12:36:49;17.50;;;10.07;;
16727;SDS011;8482;54.396;18.590;2022-10-22T12:39:19;19.10;;;10.40;;
16727;SDS011;8482;54.396;18.590;2022-10-22T12:41:55;17.00;;;10.10;;
16727;SDS011;8482;54.396;18.590;2022-10-22T12:44:21;16.15;;;10.35;;
16727;SDS011;8482;54.396;18.590;2022-10-22T12:46:47;17.30;;;11.30;;
16727;SDS011;8482;54.396;18.590;2022-10-22T12:49:21;19.05;;;11.93;;
16727;SDS011;8482;54.396;18.590;2022-10-22T12:52:00;19.27;;;11.35;;
16727;SDS011;8482;54.396;18.590;2022-10-22T12:54:31;20.20;;;12.18;;
16727;SDS011;8482;54.396;18.590;2022-10-22T12:56:59;20.13;;;12.20;;
16727;SDS011;8482;54.396;18.590;2022-10-22T13:01:59;21.70;;;12.02;;
16727;SDS011;8482;54.396;18.590;2022-10-22T13:04:32;19.77;;;11.80;;
16727;SDS011;8482;54.396;18.590;2022-10-22T13:09:40;22.15;;;13.13;;
16727;SDS011;8482;54.396;18.590;2022-10-22T13:12:10;22.85;;;13.43;;
16727;SDS011;8482;54.396;18.590;2022-10-22T13:14:41;21.98;;;13.70;;
16727;SDS011;8482;54.396;18.590;2022-10-22T13:25:21;27.52;;;16.63;;
16727;SDS011;8482;54.396;18.590;2022-10-22T13:30:23;25.92;;;14.88;;
16727;SDS011;8482;54.396;18.590;2022-10-22T13:33:03;28.52;;;16.55;;
16727;SDS011;8482;54.396;18.590;2022-10-22T13:35:43;31.17;;;16.83;;
16727;SDS011;8482;54.396;18.590;2022-10-22T13:38:11;30.00;;;16.67;;
16727;SDS011;8482;54.396;18.590;2022-10-22T13:40:44;27.10;;;16.27;;
16727;SDS011;8482;54.396;18.590;2022-10-22T13:43:10;27.65;;;16.83;;
16727;SDS011;8482;54.396;18.590;2022-10-22T13:45:36;28.98;;;16.58;;
16727;SDS011;8482;54.396;18.590;2022-10-22T13:48:02;32.90;;;18.45;;
16727;SDS011;8482;54.396;18.590;2022-10-22T13:50:28;30.40;;;18.25;;
16727;SDS011;8482;54.396;18.590;2022-10-22T13:52:55;31.42;;;17.42;;
16727;SDS011;8482;54.396;18.590;2022-10-22T13:57:52;27.80;;;17.45;;
16727;SDS011;8482;54.396;18.590;2022-10-22T14:00:24;29.85;;;16.73;;
16727;SDS011;8482;54.396;18.590;2022-10-22T14:02:51;30.13;;;18.02;;
16727;SDS011;8482;54.396;18.590;2022-10-22T14:05:22;30.38;;;17.55;;
16727;SDS011;8482;54.396;18.590;2022-10-22T14:07:48;30.90;;;17.85;;
16727;SDS011;8482;54.396;18.590;2022-10-22T14:10:19;30.55;;;17.17;;
16727;SDS011;8482;54.396;18.590;2022-10-22T14:12:48;28.65;;;17.27;;
16727;SDS011;8482;54.396;18.590;2022-10-22T14:15:16;29.58;;;17.42;;
16727;SDS011;8482;54.396;18.590;2022-10-22T14:17:45;29.63;;;16.80;;
16727;SDS011;8482;54.396;18.590;2022-10-22T14:20:20;30.15;;;15.88;;
16727;SDS011;8482;54.396;18.590;2022-10-22T14:22:49;28.75;;;16.17;;
16727;SDS011;8482;54.396;18.590;2022-10-22T14:25:16;28.67;;;16.00;;
16727;SDS011;8482;54.396;18.590;2022-10-22T14:27:48;25.75;;;15.43;;
16727;SDS011;8482;54.396;18.590;2022-10-22T14:30:16;30.83;;;15.98;;
16727;SDS011;8482;54.396;18.590;2022-10-22T14:32:50;28.48;;;16.05;;
16727;SDS011;8482;54.396;18.590;2022-10-22T14:35:18;27.77;;;15.70;;
16727;SDS011;8482;54.396;18.590;2022-10-22T14:37:46;25.17;;;14.93;;
16727;SDS011;8482;54.396;18.590;2022-10-22T14:40:13;28.63;;;15.18;;
16727;SDS011;8482;54.396;18.590;2022-10-22T14:42:44;26.15;;;14.77;;
16727;SDS011;8482;54.396;18.590;2022-10-22T14:45:22;24.67;;;14.45;;
16727;SDS011;8482;54.396;18.590;2022-10-22T14:47:51;26.80;;;14.25;;
16727;SDS011;8482;54.396;18.590;2022-10-22T14:50:21;24.95;;;14.52;;
16727;SDS011;8482;54.396;18.590;2022-10-22T14:52:49;25.75;;;14.98;;
16727;SDS011;8482;54.396;18.590;2022-10-22T14:55:15;26.05;;;13.63;;
16727;SDS011;8482;54.396;18.590;2022-10-22T14:57:45;24.00;;;13.27;;
16727;SDS011;8482;54.396;18.590;2022-10-22T15:00:12;24.33;;;13.50;;
16727;SDS011;8482;54.396;18.590;2022-10-22T15:02:42;21.60;;;12.98;;
16727;SDS011;8482;54.396;18.590;2022-10-22T15:05:09;22.00;;;13.20;;
16727;SDS011;8482;54.396;18.590;2022-10-22T15:07:36;23.30;;;13.15;;
16727;SDS011;8482;54.396;18.590;2022-10-22T15:10:03;23.42;;;13.40;;
16727;SDS011;8482;54.396;18.590;2022-10-22T15:12:31;23.83;;;13.20;;
16727;SDS011;8482;54.396;18.590;2022-10-22T15:14:57;21.80;;;12.30;;
16727;SDS011;8482;54.396;18.590;2022-10-22T15:17:23;23.60;;;13.10;;
16727;SDS011;8482;54.396;18.590;2022-10-22T15:19:49;23.13;;;13.00;;
16727;SDS011;8482;54.396;18.590;2022-10-22T15:22:17;23.13;;;12.65;;
16727;SDS011;8482;54.396;18.590;2022-10-22T15:24:43;20.13;;;12.00;;
16727;SDS011;8482;54.396;18.590;2022-10-22T15:27:10;22.30;;;12.10;;
16727;SDS011;8482;54.396;18.590;2022-10-22T15:29:39;20.25;;;12.23;;
16727;SDS011;8482;54.396;18.590;2022-10-22T15:32:07;19.45;;;10.75;;
16727;SDS011;8482;54.396;18.590;2022-10-22T15:34:36;23.02;;;12.35;;
16727;SDS011;8482;54.396;18.590;2022-10-22T15:37:05;22.20;;;12.57;;
16727;SDS011;8482;54.396;18.590;2022-10-22T15:39:34;24.10;;;13.00;;
16727;SDS011;8482;54.396;18.590;2022-10-22T15:42:03;23.55;;;13.55;;
16727;SDS011;8482;54.396;18.590;2022-10-22T15:44:30;21.95;;;13.15;;
16727;SDS011;8482;54.396;18.590;2022-10-22T15:46:56;20.08;;;12.18;;
16727;SDS011;8482;54.396;18.590;2022-10-22T15:49:24;21.40;;;12.52;;
16727;SDS011;8482;54.396;18.590;2022-10-22T15:51:52;21.27;;;11.73;;
16727;SDS011;8482;54.396;18.590;2022-10-22T15:54:23;20.85;;;11.48;;
16727;SDS011;8482;54.396;18.590;2022-10-22T15:56:53;24.80;;;13.10;;
16727;SDS011;8482;54.396;18.590;2022-10-22T15:59:23;19.55;;;11.45;;
16727;SDS011;8482;54.396;18.590;2022-10-22T16:01:50;19.80;;;11.13;;
16727;SDS011;8482;54.396;18.590;2022-10-22T16:04:16;19.35;;;11.43;;
16727;SDS011;8482;54.396;18.590;2022-10-22T16:06:46;18.40;;;12.00;;
16727;SDS011;8482;54.396;18.590;2022-10-22T16:09:18;17.92;;;11.30;;
16727;SDS011;8482;54.396;18.590;2022-10-22T16:11:47;21.52;;;11.90;;
16727;SDS011;8482;54.396;18.590;2022-10-22T16:14:15;22.10;;;11.95;;
16727;SDS011;8482;54.396;18.590;2022-10-22T16:16:45;20.77;;;12.32;;
16727;SDS011;8482;54.396;18.590;2022-10-22T16:19:14;22.55;;;12.68;;
16727;SDS011;8482;54.396;18.590;2022-10-22T16:21:42;21.30;;;11.98;;
16727;SDS011;8482;54.396;18.590;2022-10-22T16:24:09;20.60;;;12.50;;
16727;SDS011;8482;54.396;18.590;2022-10-22T16:26:36;20.45;;;12.60;;
16727;SDS011;8482;54.396;18.590;2022-10-22T16:29:03;17.90;;;11.50;;
16727;SDS011;8482;54.396;18.590;2022-10-22T16:31:35;21.60;;;12.02;;
16727;SDS011;8482;54.396;18.590;2022-10-22T16:34:01;20.33;;;12.20;;
16727;SDS011;8482;54.396;18.590;2022-10-22T16:36:27;21.08;;;11.30;;
16727;SDS011;8482;54.396;18.590;2022-10-22T16:38:53;19.45;;;11.77;;
16727;SDS011;8482;54.396;18.590;2022-10-22T16:41:21;23.05;;;12.98;;
16727;SDS011;8482;54.396;18.590;2022-10-22T16:43:50;21.92;;;12.63;;
16727;SDS011;8482;54.396;18.590;2022-10-22T16:46:20;21.20;;;12.18;;
16727;SDS011;8482;54.396;18.590;2022-10-22T16:48:48;21.90;;;12.35;;
16727;SDS011;8482;54.396;18.590;2022-10-22T16:51:17;21.55;;;12.18;;
16727;SDS011;8482;54.396;18.590;2022-10-22T16:53:47;21.25;;;12.10;;
16727;SDS011;8482;54.396;18.590;2022-10-22T16:56:15;22.73;;;12.68;;
16727;SDS011;8482;54.396;18.590;2022-10-22T16:58:42;20.70;;;11.75;;
16727;SDS011;8482;54.396;18.590;2022-10-22T17:01:14;24.27;;;12.85;;
16727;SDS011;8482;54.396;18.590;2022-10-22T17:03:42;21.17;;;12.05;;